AUA8ZM LOWW-LIPQ
Flight info
| Callsign | AUA8ZM |
|---|---|
| Flight time | 0h 37m |
| Altitude | 26000 |
| Route | RUPET DCT GRZ DCT RADLY DCT RIFEN |
| Aircraft | A20N/M-SDE2E3FGHIRWXY/LB1 |
Departure
| Time | 2026-05-04 08:14 |
|---|---|
| Airport | Vienna International Airport (LOWW) |
Arrival
| Time | 2026-05-04 08:51 |
|---|---|
| Airport | Trieste Airport (LIPQ) |
| Time | Latitude | Longitude | Altitude | Speed | Heading |
|---|---|---|---|---|---|
| 2026-05-04 07:57 | 48.11670 | 16.56899 | 605 ft | 0 kts | 27° |
| 2026-05-04 08:06 | 48.11662 | 16.56893 | 605 ft | 2 kts | 27° |
| 2026-05-04 08:08 | 48.11615 | 16.56810 | 605 ft | 0 kts | 118° |
| 2026-05-04 08:10 | 48.11577 | 16.56936 | 605 ft | 11 kts | 117° |
| 2026-05-04 08:11 | 48.11536 | 16.57060 | 605 ft | 14 kts | 117° |
| 2026-05-04 08:11 | 48.11432 | 16.57366 | 601 ft | 11 kts | 129° |
| 2026-05-04 08:11 | 48.11364 | 16.57372 | 601 ft | 10 kts | 205° |
| 2026-05-04 08:12 | 48.11298 | 16.57336 | 602 ft | 10 kts | 171° |
| 2026-05-04 08:12 | 48.11253 | 16.57425 | 600 ft | 12 kts | 115° |
| 2026-05-04 08:12 | 48.11206 | 16.57571 | 597 ft | 18 kts | 117° |
| 2026-05-04 08:12 | 48.11143 | 16.57761 | 596 ft | 21 kts | 116° |
| 2026-05-04 08:13 | 48.11073 | 16.57975 | 596 ft | 23 kts | 115° |
| 2026-05-04 08:13 | 48.10988 | 16.58191 | 596 ft | 23 kts | 133° |
| 2026-05-04 08:13 | 48.10847 | 16.58302 | 596 ft | 22 kts | 164° |
| 2026-05-04 08:13 | 48.10524 | 16.58440 | 600 ft | 83 kts | 164° |
| 2026-05-04 08:14 | 48.09753 | 16.58768 | 597 ft | 144 kts | 165° |
| 2026-05-04 08:14 | 48.08658 | 16.59238 | 829 ft | 173 kts | 164° |
| 2026-05-04 08:14 | 48.07514 | 16.59725 | 1529 ft | 172 kts | 165° |
| 2026-05-04 08:16 | 47.99774 | 16.51028 | 6254 ft | 248 kts | 224° |
| 2026-05-04 08:16 | 47.98540 | 16.49198 | 6997 ft | 256 kts | 226° |
| 2026-05-04 08:16 | 47.97302 | 16.47243 | 7742 ft | 264 kts | 227° |
| 2026-05-04 08:17 | 47.96047 | 16.45241 | 8479 ft | 271 kts | 226° |
| 2026-05-04 08:17 | 47.94739 | 16.43164 | 9215 ft | 278 kts | 226° |
| 2026-05-04 08:17 | 47.93403 | 16.41050 | 9939 ft | 286 kts | 226° |
| 2026-05-04 08:17 | 47.92025 | 16.38877 | 10556 ft | 296 kts | 226° |
| 2026-05-04 08:19 | 47.81611 | 16.22584 | 14915 ft | 325 kts | 225° |
| 2026-05-04 08:19 | 47.80038 | 16.20132 | 15553 ft | 329 kts | 225° |
| 2026-05-04 08:20 | 47.78444 | 16.17648 | 16194 ft | 334 kts | 225° |
| 2026-05-04 08:20 | 47.76819 | 16.15115 | 16827 ft | 338 kts | 225° |
| 2026-05-04 08:20 | 47.75204 | 16.12602 | 17466 ft | 342 kts | 225° |
| 2026-05-04 08:20 | 47.73524 | 16.09990 | 18123 ft | 346 kts | 226° |
| 2026-05-04 08:21 | 47.71860 | 16.07406 | 18762 ft | 349 kts | 226° |
| 2026-05-04 08:21 | 47.70154 | 16.04757 | 19411 ft | 353 kts | 226° |
| 2026-05-04 08:21 | 47.68436 | 16.02092 | 20060 ft | 355 kts | 226° |
| 2026-05-04 08:21 | 47.66698 | 15.99400 | 20710 ft | 357 kts | 226° |
| 2026-05-04 08:22 | 47.64982 | 15.96744 | 21344 ft | 359 kts | 226° |
| 2026-05-04 08:22 | 47.63226 | 15.94030 | 22001 ft | 361 kts | 226° |
| 2026-05-04 08:24 | 47.50884 | 15.75021 | 26046 ft | 372 kts | 227° |
| 2026-05-04 08:24 | 47.49028 | 15.72173 | 26046 ft | 389 kts | 227° |
| 2026-05-04 08:24 | 47.47066 | 15.69166 | 26055 ft | 407 kts | 227° |
| 2026-05-04 08:24 | 47.45022 | 15.66039 | 26061 ft | 423 kts | 227° |
| 2026-05-04 08:25 | 47.42939 | 15.62856 | 26065 ft | 438 kts | 227° |
| 2026-05-04 08:25 | 47.40739 | 15.59501 | 26059 ft | 453 kts | 227° |
| 2026-05-04 08:25 | 47.37736 | 15.54930 | 26062 ft | 469 kts | 227° |
| 2026-05-04 08:25 | 47.36212 | 15.52611 | 26059 ft | 475 kts | 227° |
| 2026-05-04 08:26 | 47.33877 | 15.49065 | 26062 ft | 482 kts | 227° |
| 2026-05-04 08:27 | 47.17159 | 15.23760 | 26070 ft | 489 kts | 226° |
| 2026-05-04 08:28 | 47.14804 | 15.20209 | 26072 ft | 489 kts | 226° |
| 2026-05-04 08:28 | 47.12374 | 15.16554 | 26075 ft | 489 kts | 226° |
| 2026-05-04 08:28 | 47.09945 | 15.12909 | 26077 ft | 489 kts | 226° |
| 2026-05-04 08:28 | 47.07554 | 15.09327 | 26082 ft | 489 kts | 226° |
| 2026-05-04 08:29 | 47.05133 | 15.05704 | 26086 ft | 489 kts | 226° |
| 2026-05-04 08:29 | 47.02713 | 15.02091 | 26089 ft | 489 kts | 226° |
| 2026-05-04 08:29 | 47.00314 | 14.98514 | 26087 ft | 489 kts | 226° |
| 2026-05-04 08:31 | 46.83445 | 14.73547 | 26095 ft | 488 kts | 226° |
| 2026-05-04 08:33 | 46.66900 | 14.48536 | 26100 ft | 487 kts | 229° |
| 2026-05-04 08:33 | 46.64573 | 14.44907 | 26095 ft | 486 kts | 229° |
| 2026-05-04 08:35 | 46.48466 | 14.19894 | 22876 ft | 477 kts | 227° |
| 2026-05-04 08:35 | 46.46173 | 14.16357 | 22342 ft | 472 kts | 227° |
| 2026-05-04 08:35 | 46.43928 | 14.12902 | 21831 ft | 469 kts | 227° |
| 2026-05-04 08:35 | 46.41672 | 14.09433 | 21316 ft | 465 kts | 226° |
| 2026-05-04 08:37 | 46.28618 | 13.89465 | 18287 ft | 442 kts | 226° |
| 2026-05-04 08:37 | 46.26500 | 13.86240 | 17788 ft | 438 kts | 226° |
| 2026-05-04 08:37 | 46.24404 | 13.83055 | 17291 ft | 435 kts | 226° |
| 2026-05-04 08:38 | 46.22306 | 13.79871 | 16786 ft | 432 kts | 226° |
| 2026-05-04 08:38 | 46.20223 | 13.76710 | 16277 ft | 429 kts | 226° |
| 2026-05-04 08:38 | 46.18188 | 13.73625 | 15781 ft | 426 kts | 226° |
| 2026-05-04 08:40 | 46.04203 | 13.52444 | 11737 ft | 402 kts | 227° |
| 2026-05-04 08:40 | 46.02264 | 13.49506 | 11106 ft | 398 kts | 227° |
| 2026-05-04 08:40 | 46.00354 | 13.46625 | 10526 ft | 395 kts | 227° |
| 2026-05-04 08:41 | 45.97689 | 13.43022 | 9680 ft | 391 kts | 216° |
| 2026-05-04 08:41 | 45.96111 | 13.41765 | 9300 ft | 389 kts | 204° |
| 2026-05-04 08:41 | 45.93506 | 13.40579 | 8685 ft | 387 kts | 196° |
| 2026-05-04 08:41 | 45.90898 | 13.39665 | 8066 ft | 383 kts | 195° |
| 2026-05-04 08:42 | 45.88319 | 13.38810 | 7447 ft | 377 kts | 194° |
| 2026-05-04 08:42 | 45.85782 | 13.37978 | 6831 ft | 372 kts | 194° |
| 2026-05-04 08:42 | 45.83246 | 13.37147 | 6203 ft | 366 kts | 194° |
| 2026-05-04 08:42 | 45.80765 | 13.36336 | 5579 ft | 361 kts | 194° |
| 2026-05-04 08:43 | 45.78316 | 13.35532 | 4953 ft | 357 kts | 194° |
| 2026-05-04 08:43 | 45.75922 | 13.34735 | 4335 ft | 353 kts | 194° |
| 2026-05-04 08:43 | 45.73500 | 13.33901 | 3704 ft | 350 kts | 194° |
| 2026-05-04 08:43 | 45.71125 | 13.33028 | 3072 ft | 346 kts | 198° |
| 2026-05-04 08:44 | 45.69011 | 13.31404 | 2441 ft | 343 kts | 219° |
| 2026-05-04 08:44 | 45.67536 | 13.28770 | 2043 ft | 334 kts | 243° |
| 2026-05-04 08:46 | 45.75335 | 13.20825 | 1939 ft | 245 kts | 24° |
| 2026-05-04 08:46 | 45.76872 | 13.21773 | 1937 ft | 230 kts | 24° |
| 2026-05-04 08:46 | 45.78288 | 13.22649 | 1932 ft | 215 kts | 24° |
| 2026-05-04 08:46 | 45.79629 | 13.23479 | 1959 ft | 201 kts | 24° |
| 2026-05-04 08:47 | 45.80859 | 13.24239 | 1988 ft | 186 kts | 24° |
| 2026-05-04 08:47 | 45.81980 | 13.24986 | 1938 ft | 169 kts | 31° |
| 2026-05-04 08:47 | 45.82795 | 13.26052 | 1893 ft | 153 kts | 68° |
| 2026-05-04 08:47 | 45.82977 | 13.27542 | 1946 ft | 152 kts | 90° |
| 2026-05-04 08:48 | 45.82947 | 13.29063 | 1949 ft | 153 kts | 94° |
| 2026-05-04 08:48 | 45.82896 | 13.30597 | 1930 ft | 155 kts | 93° |
| 2026-05-04 08:48 | 45.82866 | 13.32141 | 1758 ft | 155 kts | 92° |
| 2026-05-04 08:48 | 45.82854 | 13.33688 | 1551 ft | 153 kts | 91° |
| 2026-05-04 08:49 | 45.82847 | 13.35211 | 1350 ft | 152 kts | 91° |
| 2026-05-04 08:50 | 45.82802 | 13.43599 | 245 ft | 136 kts | 89° |
| 2026-05-04 08:50 | 45.82798 | 13.44965 | 52 ft | 134 kts | 90° |
| 2026-05-04 08:51 | 45.82790 | 13.46199 | 33 ft | 102 kts | 90° |
| 2026-05-04 08:51 | 45.82789 | 13.46974 | 35 ft | 52 kts | 91° |
| 2026-05-04 08:51 | 45.82785 | 13.47412 | 36 ft | 37 kts | 90° |
| 2026-05-04 08:51 | 45.82772 | 13.47634 | 36 ft | 14 kts | 117° |
| 2026-05-04 08:52 | 45.82695 | 13.47730 | 36 ft | 15 kts | 140° |
| 2026-05-04 08:52 | 45.82597 | 13.47849 | 36 ft | 22 kts | 139° |
| 2026-05-04 08:52 | 45.82461 | 13.48012 | 35 ft | 28 kts | 140° |
| 2026-05-04 08:52 | 45.82334 | 13.48167 | 32 ft | 17 kts | 140° |
| 2026-05-04 08:53 | 45.82254 | 13.48217 | 31 ft | 11 kts | 130° |
| 2026-05-04 08:54 | 45.82222 | 13.48537 | 30 ft | 0 kts | 168° |